Terminal Aerodrome Forecast
Issued by NWS

Home | Current Version | Previous Version | Graphics & Text | Print | Product List | Glossary On
Versions: 1 2 3 4 5 6 7 8 9 10 11 12
000
FTUS43 KMPX 092300
TAFAXN
TAF
KAXN 092327Z 1000/1024 VRB02KT P6SM SKC
     FM100900 16005KT P6SM SKC
     FM101500 17010KT P6SM FEW040
     FM101900 18012G18KT P6SM SCT040 BKN080=

USA.gov is the U.S. government's official web portal to all federal, state and local government web resources and services.